Ewaterfrd, Pennsylvania
Current Conditions -  °F | °C
As of 10:53 PM on Saturday 20 Dec 2014 (Local Time) from KAOO Reporting Station
Haze Haze  
Wind Chill: -4°   Ceiling: 10000
Heat Index: -4°   Visibility: 5mi
Dew Point: -6°   Wind: 0mph
Humidity: 85%   Direction: NA
Pressure: 30.22"   Gusts: NA
Location:  40.3617°N, 77.6745°W
Report Text: KAOO 210353Z AUTO 00000KT 5SM BR OVC100 M04/M06 A3022 RMK AO2 SLP255 T10391061
Loading
Personal Weather Stations






























Interactive Weather Map New forecast layout! Learn more

10-Day Weather Forecast

Advertisements
Track Severe Weather on mobile